createdAt,value
2022-11-27T00:00:20.071Z,51.70
2022-11-27T00:05:22.093Z,51.70
2022-11-27T00:10:24.134Z,52.17
2022-11-27T00:15:26.179Z,55.12
2022-11-27T00:20:29.805Z,54.30
2022-11-27T00:25:32.137Z,54.97
2022-11-27T00:30:34.191Z,52.60
2022-11-27T00:35:36.236Z,51.85
2022-11-27T00:40:38.223Z,47.90
2022-11-27T00:45:40.270Z,52.55
2022-11-27T00:50:42.300Z,48.50
2022-11-27T00:55:46.582Z,49.67
2022-11-27T01:01:02.902Z,51.78
2022-11-27T01:06:06.660Z,48.17
2022-11-27T01:11:14.877Z,50.17
2022-11-27T01:16:20.140Z,48.33
2022-11-27T01:21:22.439Z,45.67
2022-11-27T01:26:24.803Z,45.88
2022-11-27T01:31:29.403Z,46.83
2022-11-27T01:36:32.727Z,49.03
2022-11-27T01:41:37.546Z,45.47
2022-11-27T01:46:46.576Z,47.77
2022-11-27T01:51:56.706Z,43.25
2022-11-27T01:57:04.359Z,46.65
2022-11-27T02:02:06.506Z,41.13
2022-11-27T02:07:08.618Z,41.60
2022-11-27T02:12:43.081Z,41.95
2022-11-27T02:18:12.997Z,42.75
2022-11-27T02:23:45.695Z,41.47
2022-11-27T02:29:05.440Z,41.78
2022-11-27T02:34:34.050Z,37.90
2022-11-27T02:39:56.621Z,42.17
2022-11-27T02:45:06.806Z,37.83
2022-11-27T02:50:20.059Z,40.03
2022-11-27T02:55:26.586Z,37.60
2022-11-27T03:00:30.186Z,39.17
2022-11-27T03:05:37.561Z,37.30
2022-11-27T03:11:03.661Z,37.90
2022-11-27T03:16:24.137Z,40.33
2022-11-27T03:21:41.088Z,41.15
2022-11-27T03:26:43.825Z,35.88
2022-11-27T03:31:46.251Z,38.50
2022-11-27T03:36:48.328Z,38.85
2022-11-27T03:42:05.312Z,36.40
2022-11-27T03:47:34.027Z,35.17
2022-11-27T03:52:45.342Z,36.87
2022-11-27T03:57:57.999Z,32.85
2022-11-27T04:03:01.643Z,38.08
2022-11-27T04:08:03.863Z,36.83
2022-11-27T04:13:05.833Z,36.05
2022-11-27T04:18:08.174Z,35.85
2022-11-27T04:23:10.557Z,34.50
2022-11-27T04:28:12.529Z,36.08
2022-11-27T04:33:14.566Z,36.55
2022-11-27T04:38:16.635Z,35.37
2022-11-27T04:43:19.059Z,44.50
2022-11-27T04:48:21.090Z,42.00
2022-11-27T04:53:23.138Z,49.33
2022-11-27T04:58:25.157Z,53.20
2022-11-27T05:03:27.175Z,50.72
2022-11-27T05:08:31.651Z,49.97
2022-11-27T05:13:34.700Z,57.27
2022-11-27T05:18:36.697Z,53.25
2022-11-27T05:23:38.693Z,56.65
2022-11-27T05:28:40.706Z,55.10
2022-11-27T05:33:42.730Z,55.40
2022-11-27T05:38:44.764Z,57.28
2022-11-27T05:43:47.296Z,61.00
2022-11-27T05:48:49.701Z,58.70
2022-11-27T05:53:51.866Z,65.82
2022-11-27T05:58:54.025Z,56.20
2022-11-27T06:03:56.196Z,52.53
2022-11-27T06:08:58.190Z,59.08
2022-11-27T06:14:00.176Z,61.72
2022-11-27T06:19:02.339Z,58.13
2022-11-27T06:24:04.469Z,55.37
2022-11-27T06:29:06.727Z,51.65
2022-11-27T06:34:08.758Z,54.25
2022-11-27T06:39:12.004Z,55.03
2022-11-27T06:44:14.107Z,48.87
2022-11-27T06:49:16.105Z,49.17
2022-11-27T06:54:18.156Z,45.93
2022-11-27T06:59:20.256Z,48.10
2022-11-27T07:04:22.494Z,52.70
2022-11-27T07:09:24.615Z,47.77
2022-11-27T07:14:26.657Z,45.27
2022-11-27T07:19:28.743Z,45.95
2022-11-27T07:24:30.817Z,43.83
2022-11-27T07:29:32.818Z,49.60
2022-11-27T07:34:34.856Z,47.10
2022-11-27T07:40:00.672Z,47.60
2022-11-27T07:44:58.987Z,49.20
2022-11-27T07:50:01.226Z,42.42
2022-11-27T07:55:04.520Z,42.58
2022-11-27T08:00:07.200Z,43.10
2022-11-27T08:05:12.773Z,47.30
2022-11-27T08:10:15.506Z,47.90
2022-11-27T08:15:17.637Z,54.42
2022-11-27T08:20:20.019Z,44.63
2022-11-27T08:25:22.162Z,53.45
2022-11-27T08:30:24.680Z,48.80
2022-11-27T08:35:26.762Z,44.47
2022-11-27T08:40:29.119Z,48.65
2022-11-27T08:45:32.951Z,42.65
2022-11-27T08:50:34.993Z,47.23
2022-11-27T08:55:37.273Z,43.40
2022-11-27T09:00:40.631Z,43.17
2022-11-27T09:05:44.510Z,43.05
2022-11-27T09:10:46.537Z,50.27
2022-11-27T09:15:48.559Z,48.60
2022-11-27T09:21:18.497Z,53.95
2022-11-27T09:26:20.631Z,46.87
2022-11-27T09:31:23.259Z,46.08
2022-11-27T09:36:26.747Z,39.25
2022-11-27T09:41:44.543Z,54.07
2022-11-27T09:46:46.845Z,46.77
2022-11-27T09:52:02.188Z,49.95
2022-11-27T09:57:05.765Z,53.87
2022-11-27T10:02:18.148Z,43.50
2022-11-27T10:08:06.083Z,46.10
2022-11-27T10:13:30.868Z,58.95
2022-11-27T10:18:51.706Z,50.37
2022-11-27T10:24:21.677Z,44.33
2022-11-27T10:29:50.249Z,52.17
2022-11-27T10:34:58.979Z,49.67
2022-11-27T10:40:18.853Z,51.60
2022-11-27T10:46:02.160Z,51.42
2022-11-27T10:51:21.074Z,50.88
2022-11-27T10:56:56.074Z,51.63
2022-11-27T11:01:59.906Z,47.20
2022-11-27T11:07:01.961Z,57.28
2022-11-27T11:12:18.871Z,47.60
2022-11-27T11:17:30.800Z,47.85
2022-11-27T11:22:34.839Z,50.70
2022-11-27T11:27:37.025Z,53.77
2022-11-27T11:32:40.666Z,50.27
2022-11-27T11:37:46.335Z,52.70
2022-11-27T11:42:53.371Z,44.20
2022-11-27T11:48:01.443Z,41.33
2022-11-27T11:53:22.359Z,45.75
2022-11-27T11:58:35.137Z,40.72
2022-11-27T12:04:02.031Z,37.60
2022-11-27T12:09:04.123Z,40.85
2022-11-27T12:14:17.093Z,38.10
2022-11-27T12:19:28.257Z,40.10
2022-11-27T12:24:44.870Z,37.30
2022-11-27T12:30:03.801Z,40.60
2022-11-27T12:35:38.088Z,34.78
2022-11-27T12:40:56.774Z,36.50
2022-11-27T12:46:22.559Z,32.42
2022-11-27T12:51:29.519Z,32.88
2022-11-27T12:56:43.648Z,34.23
2022-11-27T13:01:52.359Z,31.58
2022-11-27T13:07:08.863Z,28.98
2022-11-27T13:12:17.697Z,25.93
2022-11-27T13:17:20.865Z,25.90
2022-11-27T13:22:32.095Z,32.53
2022-11-27T13:27:37.633Z,26.15
2022-11-27T13:33:01.731Z,22.80
2022-11-27T13:38:23.687Z,26.73
2022-11-27T13:43:34.286Z,27.15
2022-11-27T13:48:40.221Z,23.13
2022-11-27T13:53:42.604Z,23.87
2022-11-27T13:58:44.637Z,28.58
2022-11-27T14:03:46.911Z,28.20
2022-11-27T14:09:01.013Z,24.80
2022-11-27T14:14:14.475Z,26.42
2022-11-27T14:19:59.433Z,24.08
2022-11-27T14:25:01.699Z,27.23
2022-11-27T14:30:40.141Z,25.00
2022-11-27T14:35:42.199Z,25.20
2022-11-27T14:40:44.669Z,23.17
2022-11-27T14:45:49.752Z,24.20
2022-11-27T14:50:54.176Z,26.00
2022-11-27T14:55:58.488Z,25.17
2022-11-27T15:01:04.225Z,29.30
2022-11-27T15:06:07.964Z,28.75
2022-11-27T15:11:29.951Z,26.67
2022-11-27T15:16:44.443Z,25.40
2022-11-27T15:21:49.937Z,24.65
2022-11-27T15:26:52.000Z,25.88
2022-11-27T15:31:54.168Z,23.90
2022-11-27T15:37:03.837Z,25.90
2022-11-27T15:42:10.005Z,23.27
2022-11-27T15:47:24.110Z,25.67
2022-11-27T15:52:27.274Z,24.37
2022-11-27T15:57:29.317Z,24.05
2022-11-27T16:02:31.332Z,25.55
2022-11-27T16:07:33.908Z,22.37
2022-11-27T16:12:36.025Z,26.45
2022-11-27T16:17:38.124Z,27.35
2022-11-27T16:22:40.177Z,28.73
2022-11-27T16:27:42.220Z,23.85
2022-11-27T16:32:44.207Z,24.50
2022-11-27T16:37:46.270Z,24.50
2022-11-27T16:42:48.312Z,30.20
2022-11-27T16:47:50.373Z,25.95
2022-11-27T16:52:54.563Z,17.67
2022-11-27T16:57:56.850Z,22.27
2022-11-27T17:02:58.886Z,20.35
2022-11-27T17:08:00.982Z,21.98
2022-11-27T17:13:03.175Z,19.50
2022-11-27T17:18:05.480Z,20.30
2022-11-27T17:23:07.488Z,20.00
2022-11-27T17:28:09.716Z,20.60
2022-11-27T17:33:11.721Z,17.60
2022-11-27T17:38:14.012Z,21.85
2022-11-27T17:43:16.069Z,20.00
2022-11-27T17:48:18.120Z,17.97
2022-11-27T17:53:20.222Z,17.90
2022-11-27T17:58:22.245Z,20.42
2022-11-27T18:03:24.309Z,21.60
2022-11-27T18:08:26.358Z,23.92
2022-11-27T18:13:32.429Z,18.83
2022-11-27T18:18:35.480Z,22.00
2022-11-27T18:24:14.516Z,20.47
2022-11-27T18:29:05.412Z,19.20
2022-11-27T18:34:07.610Z,21.20
2022-11-27T18:39:09.728Z,19.10
2022-11-27T18:44:11.834Z,24.33
2022-11-27T18:49:13.875Z,23.05
2022-11-27T18:54:15.999Z,24.40
2022-11-27T18:59:18.023Z,25.00
2022-11-27T19:04:20.086Z,28.05
2022-11-27T19:09:22.257Z,27.00
2022-11-27T19:14:24.301Z,27.27
2022-11-27T19:19:53.389Z,30.30
2022-11-27T19:24:49.218Z,36.30
2022-11-27T19:29:51.363Z,36.23
2022-11-27T19:34:53.517Z,37.47
2022-11-27T19:39:55.574Z,37.22
2022-11-27T19:44:57.654Z,34.60
2022-11-27T19:49:59.755Z,38.42
2022-11-27T19:55:02.126Z,42.15
2022-11-27T20:00:06.875Z,41.63
2022-11-27T20:05:09.363Z,42.37
2022-11-27T20:10:12.471Z,40.28
2022-11-27T20:15:16.770Z,43.38
2022-11-27T20:20:19.262Z,46.03
2022-11-27T20:25:21.361Z,43.53
2022-11-27T20:30:23.553Z,40.55
2022-11-27T20:35:25.690Z,41.73
2022-11-27T20:40:28.487Z,43.50
2022-11-27T20:45:30.663Z,46.13
2022-11-27T20:50:32.987Z,41.67
2022-11-27T20:55:35.118Z,45.50
2022-11-27T21:00:37.508Z,40.30
2022-11-27T21:05:43.198Z,38.13
2022-11-27T21:10:45.554Z,40.10
2022-11-27T21:15:47.972Z,37.33
2022-11-27T21:20:50.244Z,36.58
2022-11-27T21:25:52.303Z,31.77
